Time;durP1;ratioP1;P1;durP2;ratioP2;P2;SDS_P1;SDS_P2;PMS_P1;PMS_P2;Temp;Humidity;BMP_temperature;BMP_pressure;BME280_temperature;BME280_humidity;BME280_pressure;Samples;Min_cycle;Max_cycle;Signal;HPM_P1;HPM_P2
2022/06/05 00:01:11;;;;;;;9.93;6.93;;;;;;;16.29;97.02;100055.16;5017065;28;20116;-79
2022/06/05 00:03:49;;;;;;;7.18;6.50;;;;;;;16.23;96.38;100045.06;5016761;28;20033;-79
2022/06/05 00:06:24;;;;;;;7.10;6.40;;;;;;;16.25;96.06;100045.78;5035229;28;20373;-79
2022/06/05 00:09:16;;;;;;;6.88;6.10;;;;;;;16.20;95.16;100030.31;5034791;28;20025;-79
2022/06/05 00:11:59;;;;;;;6.57;5.90;;;;;;;16.19;94.78;100028.63;5034519;28;20034;-79
2022/06/05 00:14:25;;;;;;;6.10;5.60;;;;;;;16.26;93.89;100039.59;5016997;28;20059;-79
2022/06/05 00:16:51;;;;;;;6.00;5.40;;;;;;;16.24;93.39;100033.59;5034334;28;20061;-79
2022/06/05 00:19:16;;;;;;;6.85;5.70;;;;;;;16.17;93.06;100020.00;5016881;28;20036;-79
2022/06/05 00:21:42;;;;;;;6.00;5.50;;;;;;;16.27;92.70;100042.13;5016641;28;20025;-79
2022/06/05 00:24:08;;;;;;;9.70;5.80;;;;;;;16.28;92.21;100035.94;5016755;28;20085;-79
2022/06/05 00:27:06;;;;;;;6.15;5.30;;;;;;;16.29;91.66;100034.97;5016514;28;20034;-79
2022/06/05 00:29:41;;;;;;;5.65;5.15;;;;;;;16.32;90.94;100037.41;5016700;28;20026;-79
2022/06/05 00:32:13;;;;;;;5.30;4.80;;;;;;;16.33;89.91;100035.63;5034649;28;20485;-79
2022/06/05 00:34:39;;;;;;;5.00;4.60;;;;;;;16.35;89.13;100029.34;5016218;28;20021;-79
2022/06/05 00:37:18;;;;;;;4.63;4.22;;;;;;;16.37;87.80;100037.13;5016321;28;20030;-79
2022/06/05 00:39:55;;;;;;;6.18;4.20;;;;;;;16.32;86.87;100021.66;5016243;28;20104;-80
2022/06/05 00:42:25;;;;;;;5.80;4.38;;;;;;;16.38;86.60;100023.88;5011820;28;20080;-79
2022/06/05 00:44:57;;;;;;;5.80;4.32;;;;;;;16.29;85.57;100006.06;5011905;28;20042;-79
2022/06/05 00:47:30;;;;;;;4.38;4.00;;;;;;;16.35;84.26;100013.56;5011600;28;20037;-79
2022/06/05 00:50:09;;;;;;;4.18;3.78;;;;;;;16.40;83.44;100027.25;5011407;28;20038;-79
2022/06/05 00:52:38;;;;;;;5.38;4.07;;;;;;;16.34;82.02;100014.50;4995141;28;20049;-79
2022/06/05 00:55:05;;;;;;;5.35;3.88;;;;;;;16.43;81.93;100026.19;5011591;28;20054;-79
2022/06/05 00:57:33;;;;;;;3.78;3.47;;;;;;;16.38;81.82;100025.66;5011492;28;20061;-79
2022/06/05 01:00:00;;;;;;;4.85;3.38;;;;;;;16.41;80.39;100026.31;5010816;28;20060;-79
2022/06/05 01:02:26;;;;;;;5.13;3.30;;;;;;;16.46;79.20;100026.00;4995122;28;20034;-79
2022/06/05 01:04:52;;;;;;;4.03;3.35;;;;;;;16.49;78.40;100027.59;5011234;28;20481;-80
2022/06/05 01:07:19;;;;;;;4.32;3.38;;;;;;;16.49;77.88;100027.59;5011329;28;20076;-79
2022/06/05 01:09:47;;;;;;;3.97;3.67;;;;;;;16.52;77.33;100030.88;5011537;28;20042;-79
2022/06/05 01:12:31;;;;;;;3.65;3.35;;;;;;;16.59;76.61;100029.53;5012025;28;20037;-79
2022/06/05 01:15:13;;;;;;;3.45;3.15;;;;;;;16.61;76.46;100027.66;5015699;28;20044;-79
2022/06/05 01:18:11;;;;;;;3.83;3.35;;;;;;;16.67;75.28;100039.53;5015514;28;20021;-79
2022/06/05 01:20:52;;;;;;;3.50;3.17;;;;;;;16.67;75.44;100037.75;5015373;28;20404;-79
2022/06/05 01:23:32;;;;;;;;;;;;;;;16.65;75.56;100039.66;5034257;28;20029;-79
2022/06/05 01:26:04;;;;;;;4.38;3.83;;;;;;;16.63;75.90;100033.63;5015396;28;19909;-79
2022/06/05 01:28:38;;;;;;;4.65;3.70;;;;;;;16.58;76.20;100030.47;5033327;28;20522;-79
2022/06/05 01:31:31;;;;;;;3.33;3.03;;;;;;;16.55;76.32;100035.09;5015275;28;20067;-79
2022/06/05 01:34:04;;;;;;;5.60;3.63;;;;;;;16.48;76.29;100029.41;5033435;28;20033;-79
2022/06/05 01:36:46;;;;;;;3.60;3.30;;;;;;;16.45;76.42;100035.69;5015485;28;20032;-79
2022/06/05 01:39:28;;;;;;;3.60;3.30;;;;;;;16.36;76.22;100024.94;5015332;28;20079;-79
2022/06/05 01:41:57;;;;;;;4.82;3.38;;;;;;;16.40;75.84;100040.41;5032885;28;20425;-79
2022/06/05 01:44:50;;;;;;;4.97;3.38;;;;;;;16.40;75.93;100042.19;5032965;28;20033;-79
2022/06/05 01:47:25;;;;;;;4.15;3.38;;;;;;;16.36;76.11;100031.03;4955403;28;20030;-79
2022/06/05 01:50:01;;;;;;;3.67;3.03;;;;;;;16.29;76.80;100036.78;4971679;28;20034;-79
2022/06/05 01:52:35;;;;;;;3.22;2.88;;;;;;;16.20;77.44;100046.09;4955341;28;20101;-79
2022/06/05 01:55:16;;;;;;;3.55;3.25;;;;;;;16.12;78.38;100048.34;4954982;28;20124;-79
2022/06/05 01:57:42;;;;;;;3.33;3.03;;;;;;;16.01;79.41;100038.50;4955104;28;20031;-79
2022/06/05 02:00:14;;;;;;;3.15;2.85;;;;;;;15.91;80.28;100038.25;4955194;28;20034;-79
2022/06/05 02:02:50;;;;;;;3.50;3.20;;;;;;;15.85;81.19;100035.19;4955190;28;20061;-79
2022/06/05 02:05:39;;;;;;;3.95;3.53;;;;;;;15.74;81.61;100037.63;4955131;28;20632;-79
2022/06/05 02:08:15;;;;;;;4.35;3.95;;;;;;;15.64;82.59;100043.44;4970896;28;20062;-80
2022/06/05 02:10:47;;;;;;;3.85;3.35;;;;;;;15.57;83.35;100043.88;4971186;28;20574;-79
2022/06/05 02:13:12;;;;;;;4.10;3.80;;;;;;;15.50;84.10;100046.00;4954400;28;20023;-79
2022/06/05 02:15:38;;;;;;;4.03;3.60;;;;;;;15.39;85.07;100046.69;4955102;28;20073;-79
2022/06/05 02:18:05;;;;;;;4.40;3.80;;;;;;;15.17;85.90;100025.28;4954691;28;20695;-79
2022/06/05 02:20:31;;;;;;;4.38;3.63;;;;;;;15.19;86.66;100047.00;4971057;28;20035;-79
2022/06/05 02:22:57;;;;;;;3.70;3.22;;;;;;;15.07;87.07;100032.84;4957895;28;20034;-79
2022/06/05 02:25:25;;;;;;;4.22;3.83;;;;;;;15.03;88.12;100047.06;5014434;28;20033;-79
2022/06/05 02:27:57;;;;;;;5.30;3.90;;;;;;;14.98;89.00;100055.22;5032088;28;20026;-79
2022/06/05 02:30:25;;;;;;;4.18;3.70;;;;;;;14.90;89.26;100049.56;5032276;28;20037;-79
2022/06/05 02:33:32;;;;;;;4.30;3.90;;;;;;;14.84;89.83;100055.19;5032221;28;20052;-79
2022/06/05 02:36:21;;;;;;;4.75;4.30;;;;;;;14.75;90.96;100053.09;4970728;28;20038;-79
2022/06/05 02:38:52;;;;;;;4.90;4.50;;;;;;;14.73;92.05;100057.56;4954497;28;20066;-79
2022/06/05 02:41:32;;;;;;;4.65;4.25;;;;;;;14.66;93.02;100050.97;4954556;28;20043;-79
2022/06/05 02:47:02;;;;;;;7.05;6.35;;;;;;;14.77;95.25;100063.47;4971004;28;20122;-79
2022/06/05 02:49:55;;;;;;;7.10;6.50;;;;;;;14.82;95.93;100066.69;4954527;28;20065;-79
2022/06/05 02:52:22;;;;;;;6.65;5.90;;;;;;;14.85;96.08;100069.13;4954414;28;20375;-79
2022/06/05 02:55:01;;;;;;;6.90;6.25;;;;;;;14.85;96.81;100069.97;4970221;28;20178;-79
2022/06/05 02:57:27;;;;;;;8.13;7.43;;;;;;;14.88;97.43;100068.97;4932036;29;20039;-79
2022/06/05 02:59:52;;;;;;;7.85;7.10;;;;;;;14.90;97.55;100073.16;4916020;29;20426;-79
2022/06/05 03:05:03;;;;;;;7.05;6.15;;;;;;;14.90;97.58;100074.94;4932283;29;20042;-79
2022/06/05 03:07:29;;;;;;;7.30;6.60;;;;;;;14.85;96.64;100069.13;4916164;29;20047;-79
2022/06/05 03:09:54;;;;;;;5.97;5.38;;;;;;;14.86;96.17;100084.75;4961973;28;20042;-79
2022/06/05 03:12:19;;;;;;;5.95;5.45;;;;;;;14.83;95.71;100087.59;4989808;28;20034;-79
2022/06/05 03:14:45;;;;;;;5.13;4.63;;;;;;;14.84;95.13;100091.91;4990162;28;20042;-79
2022/06/05 03:17:11;;;;;;;5.47;4.60;;;;;;;14.86;95.28;100099.66;4973445;28;20041;-79
2022/06/05 03:19:36;;;;;;;5.35;4.85;;;;;;;14.87;94.73;100090.84;4973458;28;20044;-79
2022/06/05 03:22:02;;;;;;;5.47;4.97;;;;;;;14.92;94.57;100101.94;4973185;28;20386;-79
2022/06/05 03:24:27;;;;;;;6.18;5.57;;;;;;;14.96;94.63;100100.84;4976883;28;20030;-79
2022/06/05 03:26:53;;;;;;;6.93;6.10;;;;;;;14.97;94.78;100102.53;4977155;28;20023;-79
2022/06/05 03:29:18;;;;;;;8.07;5.38;;;;;;;15.00;94.90;100102.34;5011835;28;20485;-79
2022/06/05 03:31:44;;;;;;;5.78;5.18;;;;;;;15.02;94.95;100097.84;5017761;28;20052;-79
2022/06/05 03:34:09;;;;;;;7.15;5.03;;;;;;;15.05;95.09;100108.19;5017296;28;20033;-79
2022/06/05 03:36:35;;;;;;;5.32;4.82;;;;;;;15.07;95.17;100114.16;5035480;28;20108;-79
2022/06/05 03:39:00;;;;;;;5.60;5.10;;;;;;;15.10;94.92;100110.53;5017375;28;20033;-79
2022/06/05 03:41:26;;;;;;;5.57;5.10;;;;;;;15.12;94.93;100108.66;5035223;28;20457;-79
2022/06/05 03:43:51;;;;;;;5.32;4.82;;;;;;;15.15;95.17;100116.34;5017361;28;20101;-79
2022/06/05 03:46:17;;;;;;;6.93;6.15;;;;;;;15.16;95.03;100100.50;5035141;28;20029;-79
2022/06/05 03:48:43;;;;;;;7.07;5.95;;;;;;;15.31;94.97;100117.16;5017213;28;20029;-79
2022/06/05 03:51:13;;;;;;;5.93;5.32;;;;;;;15.40;94.53;100115.75;5034789;28;20079;-79
2022/06/05 03:53:39;;;;;;;6.25;5.43;;;;;;;15.44;94.14;100115.47;5017382;28;20028;-79
2022/06/05 03:56:14;;;;;;;6.05;5.22;;;;;;;15.39;94.17;100104.41;5034671;28;20073;-79
2022/06/05 03:58:40;;;;;;;6.60;5.20;;;;;;;15.45;94.49;100108.44;5034948;28;20474;-79
2022/06/05 04:01:10;;;;;;;5.18;4.70;;;;;;;15.40;94.58;100108.72;5016902;28;20052;-79
2022/06/05 04:03:36;;;;;;;5.03;4.63;;;;;;;15.38;94.83;100109.75;5017428;28;20026;-79
2022/06/05 04:06:07;;;;;;;5.63;4.80;;;;;;;15.30;94.66;100098.88;5035026;28;20385;-79
2022/06/05 04:08:35;;;;;;;6.20;5.60;;;;;;;15.37;94.60;100108.91;5017093;28;20017;-79
2022/06/05 04:11:05;;;;;;;5.38;4.72;;;;;;;15.30;94.69;100088.38;5016740;28;20124;-79
2022/06/05 04:13:30;;;;;;;6.18;5.10;;;;;;;15.39;95.01;100100.94;5034630;28;20105;-80
2022/06/05 04:15:55;;;;;;;5.30;4.55;;;;;;;15.42;94.92;100103.38;5034629;28;20029;-79
2022/06/05 04:18:21;;;;;;;4.53;4.13;;;;;;;15.47;94.57;100101.34;5016985;28;20018;-79
2022/06/05 04:20:46;;;;;;;4.70;4.30;;;;;;;15.49;94.56;100102.09;5034813;28;20358;-80
2022/06/05 04:23:12;;;;;;;5.43;4.65;;;;;;;15.78;93.88;100108.25;5016497;28;20615;-79
2022/06/05 04:25:40;;;;;;;4.90;4.05;;;;;;;15.86;93.08;100102.53;5016693;28;20029;-79
2022/06/05 04:28:07;;;;;;;4.55;4.00;;;;;;;15.88;93.09;100103.25;5016340;28;20079;-79
2022/06/05 04:30:36;;;;;;;4.80;4.00;;;;;;;16.15;92.87;100117.34;5016793;28;20029;-79
2022/06/05 04:33:02;;;;;;;4.88;3.78;;;;;;;16.60;91.52;100104.00;5034242;28;20025;-80
2022/06/05 04:35:28;;;;;;;4.90;4.40;;;;;;;16.90;90.24;100103.84;5015842;28;20034;-80
2022/06/05 04:37:53;;;;;;;4.30;3.90;;;;;;;16.96;89.33;100098.16;5016378;28;20545;-80
2022/06/05 04:40:19;;;;;;;4.90;4.00;;;;;;;17.22;89.09;100104.31;5011682;28;20038;-80
2022/06/05 04:42:44;;;;;;;5.38;4.63;;;;;;;18.08;86.62;100107.22;5012263;28;20068;-79
2022/06/05 04:45:10;;;;;;;4.57;4.15;;;;;;;19.89;79.25;100101.78;5011734;28;20536;-80
2022/06/05 04:47:35;;;;;;;5.72;4.32;;;;;;;21.87;69.48;100100.44;4995305;28;20026;-79
2022/06/05 04:50:02;;;;;;;7.68;4.85;;;;;;;23.24;61.75;100094.44;4995105;28;20034;-79
2022/06/05 04:52:27;;;;;;;25.98;11.70;;;;;;;23.51;58.15;100103.47;4995202;28;20025;-80
2022/06/05 04:54:53;;;;;;;24.48;14.07;;;;;;;22.79;58.81;100097.63;4994678;28;20042;-80
2022/06/05 04:57:18;;;;;;;22.75;12.75;;;;;;;22.15;60.27;100108.69;5011651;28;20033;-79
2022/06/05 04:59:44;;;;;;;19.63;11.10;;;;;;;21.76;61.65;100099.69;4995051;28;20045;-80
2022/06/05 05:02:09;;;;;;;15.93;8.20;;;;;;;21.71;62.52;100109.84;5011322;28;20038;-80
2022/06/05 05:04:35;;;;;;;11.52;7.18;;;;;;;21.83;61.88;100103.50;4995180;28;20124;-80
2022/06/05 05:07:00;;;;;;;10.50;6.47;;;;;;;22.66;59.73;100102.34;4994806;28;20040;-80
2022/06/05 05:09:26;;;;;;;6.35;5.10;;;;;;;24.26;54.00;100104.34;4995155;28;20038;-80
2022/06/05 05:11:51;;;;;;;5.63;4.10;;;;;;;25.82;49.14;100102.09;5027939;28;20422;-80
2022/06/05 05:14:17;;;;;;;4.70;4.25;;;;;;;26.32;46.36;100101.31;5010989;28;20065;-80
2022/06/05 05:16:42;;;;;;;3.95;3.50;;;;;;;25.67;47.14;100101.84;4994921;28;20429;-80
2022/06/05 05:19:08;;;;;;;3.80;3.42;;;;;;;24.66;49.29;100104.00;4994525;28;20046;-80
2022/06/05 05:21:34;;;;;;;3.53;3.00;;;;;;;24.11;52.64;100102.19;4994768;28;20580;-80
2022/06/05 05:24:00;;;;;;;3.08;2.75;;;;;;;24.14;54.08;100101.91;4994533;28;20061;-80
2022/06/05 05:26:31;;;;;;;2.90;2.70;;;;;;;24.19;51.98;100103.25;5011113;28;20034;-80
2022/06/05 05:28:57;;;;;;;3.70;2.63;;;;;;;24.50;52.07;100099.31;4994442;28;20132;-80
2022/06/05 05:31:27;;;;;;;3.00;2.70;;;;;;;25.83;49.06;100101.09;4994574;28;20476;-80
2022/06/05 05:33:54;;;;;;;2.92;2.60;;;;;;;27.75;42.74;100100.94;5011093;28;20076;-80
2022/06/05 05:36:21;;;;;;;3.15;2.63;;;;;;;29.52;38.60;100101.03;4991264;28;20084;-80
2022/06/05 05:44:18;;;;;;;4.07;3.13;;;;;;;27.52;40.82;100095.47;4973728;28;20501;-80
2022/06/05 05:46:44;;;;;;;2.67;2.47;;;;;;;27.05;42.24;100088.13;4990509;28;20046;-80
2022/06/05 05:49:11;;;;;;;4.72;2.80;;;;;;;26.84;42.93;100085.94;4990778;28;20133;-80
2022/06/05 05:51:37;;;;;;;3.28;2.50;;;;;;;26.61;42.39;100074.22;4974671;28;20045;-80
2022/06/05 05:54:03;;;;;;;2.88;2.53;;;;;;;26.59;42.95;100078.91;4974315;28;20042;-80
2022/06/05 05:56:29;;;;;;;2.42;2.22;;;;;;;26.78;42.63;100078.56;4932881;29;20499;-80
2022/06/05 05:58:55;;;;;;;3.60;2.35;;;;;;;26.76;42.67;100077.91;4933062;29;20076;-80
2022/06/05 06:01:21;;;;;;;3.65;2.67;;;;;;;26.77;42.98;100073.41;4933003;29;20138;-80
2022/06/05 06:03:46;;;;;;;3.00;2.45;;;;;;;26.67;43.11;100067.34;4932909;29;20518;-80
2022/06/05 06:06:11;;;;;;;3.13;2.33;;;;;;;26.65;42.51;100061.34;4932514;29;20038;-80
2022/06/05 06:08:37;;;;;;;4.70;2.42;;;;;;;26.79;42.86;100072.22;4933158;29;20130;-80
2022/06/05 06:11:02;;;;;;;2.85;2.65;;;;;;;26.84;42.35;100082.41;4948508;29;20495;-80
2022/06/05 06:13:29;;;;;;;2.40;2.20;;;;;;;26.96;42.51;100065.03;4932863;29;20043;-80
2022/06/05 06:15:54;;;;;;;3.75;2.53;;;;;;;27.01;42.17;100067.22;4950468;28;20053;-80
2022/06/05 06:18:20;;;;;;;2.70;2.50;;;;;;;27.34;41.69;100073.41;4971217;28;20609;-80
2022/06/05 06:20:46;;;;;;;2.70;2.50;;;;;;;27.46;41.78;100065.84;4971051;28;20046;-79
2022/06/05 06:23:12;;;;;;;4.95;2.63;;;;;;;27.74;40.97;100072.50;4971029;28;20039;-78
2022/06/05 06:25:38;;;;;;;2.60;2.40;;;;;;;27.87;40.09;100074.66;4971243;28;20062;-78
2022/06/05 06:28:06;;;;;;;2.35;2.03;;;;;;;28.61;38.11;100061.72;5016515;28;20129;-78
2022/06/05 06:30:33;;;;;;;2.45;2.13;;;;;;;31.42;35.01;100057.94;5032233;28;20033;-78
2022/06/05 06:32:59;;;;;;;4.43;2.70;;;;;;;34.46;28.81;100064.59;5031995;28;20064;-78
2022/06/05 06:35:24;;;;;;;2.80;2.50;;;;;;;36.76;25.25;100067.03;5032006;28;20362;-78
2022/06/05 06:37:50;;;;;;;3.45;2.40;;;;;;;38.90;22.47;100059.91;5032466;28;20037;-78
2022/06/05 06:40:15;;;;;;;2.30;2.10;;;;;;;40.31;20.41;100066.75;5031909;28;20403;-78
2022/06/05 06:42:41;;;;;;;2.40;2.20;;;;;;;41.68;19.46;100071.66;5032073;28;20083;-78
2022/06/05 06:45:07;;;;;;;5.60;2.50;;;;;;;43.03;17.45;100068.69;5031732;28;20457;-79
2022/06/05 06:47:33;;;;;;;3.20;1.90;;;;;;;43.11;16.67;100072.84;5031838;28;20104;-79
2022/06/05 06:49:59;;;;;;;3.20;2.28;;;;;;;43.94;16.10;100079.72;5013916;28;20029;-78
2022/06/05 06:52:24;;;;;;;1.92;1.83;;;;;;;44.00;16.17;100076.69;5014210;28;20025;-79
2022/06/05 06:54:50;;;;;;;2.33;2.13;;;;;;;44.87;15.44;100075.28;5031763;28;20048;-78
2022/06/05 06:57:16;;;;;;;2.10;2.00;;;;;;;45.69;14.33;100069.81;5031496;28;20022;-79
2022/06/05 06:59:42;;;;;;;2.65;2.22;;;;;;;46.66;14.17;100069.28;5031663;28;20362;-79
2022/06/05 07:02:07;;;;;;;2.60;2.25;;;;;;;47.16;13.53;100061.25;5043359;28;20044;-79
2022/06/05 07:04:33;;;;;;;1.90;1.80;;;;;;;47.47;12.98;100061.47;5051532;28;20056;-79
2022/06/05 07:06:59;;;;;;;2.42;2.00;;;;;;;47.90;12.84;100060.31;5048320;28;20086;-79
2022/06/05 07:09:24;;;;;;;1.85;1.75;;;;;;;48.36;13.03;100062.03;5051357;28;20079;-78
2022/06/05 07:11:50;;;;;;;2.33;2.13;;;;;;;49.13;12.24;100066.47;5051723;28;20517;-78
2022/06/05 07:14:16;;;;;;;2.25;2.05;;;;;;;49.22;12.17;100081.16;5051269;28;20017;-78
2022/06/05 07:16:42;;;;;;;2.40;2.13;;;;;;;49.49;11.42;100068.28;5050960;28;20036;-78
2022/06/05 07:19:08;;;;;;;1.70;1.60;;;;;;;49.57;11.99;100057.22;5049656;28;20032;-78
2022/06/05 07:21:34;;;;;;;2.20;2.00;;;;;;;50.14;11.07;100067.41;5051041;28;20372;-78
2022/06/05 07:23:59;;;;;;;3.35;1.88;;;;;;;50.27;10.92;100058.13;5051538;28;20052;-80
2022/06/05 07:26:29;;;;;;;1.95;1.80;;;;;;;50.09;11.20;100059.25;5051229;28;20040;-79
2022/06/05 07:28:56;;;;;;;2.17;2.00;;;;;;;50.77;10.84;100054.00;5033448;28;20105;-80
2022/06/05 07:31:22;;;;;;;1.90;1.80;;;;;;;50.31;10.58;100052.75;5033361;28;20063;-79
2022/06/05 07:33:48;;;;;;;2.17;2.00;;;;;;;49.63;11.06;100055.91;5033420;28;20039;-79
2022/06/05 07:36:16;;;;;;;3.47;2.20;;;;;;;49.28;11.49;100054.19;5051279;28;20025;-79
2022/06/05 07:38:43;;;;;;;1.90;1.80;;;;;;;49.37;11.17;100057.78;5033787;28;20086;-79
2022/06/05 07:41:19;;;;;;;1.95;1.85;;;;;;;49.53;11.32;100038.81;5051369;28;20122;-80
2022/06/05 07:43:45;;;;;;;2.10;2.00;;;;;;;50.50;11.13;100033.81;5051433;28;20380;-80
2022/06/05 07:46:12;;;;;;;1.73;1.63;;;;;;;51.13;10.48;100043.28;5050781;28;20025;-79
2022/06/05 07:48:38;;;;;;;1.92;1.83;;;;;;;50.99;10.40;100042.69;5033604;28;20107;-79
2022/06/05 07:56:39;;;;;;;1.98;1.88;;;;;;;50.81;10.48;100038.31;5051246;28;20056;-79
2022/06/05 07:59:05;;;;;;;2.22;1.90;;;;;;;50.21;10.29;100026.19;5051443;28;20021;-80
2022/06/05 08:01:30;;;;;;;2.05;1.95;;;;;;;50.20;10.32;100038.44;5033418;28;20058;-80
2022/06/05 08:03:56;;;;;;;2.45;2.17;;;;;;;49.98;10.31;100028.28;5051351;28;20029;-80
2022/06/05 08:06:21;;;;;;;1.70;1.60;;;;;;;50.00;10.57;100026.03;5032958;28;20036;-80
2022/06/05 08:08:47;;;;;;;2.10;2.00;;;;;;;50.06;10.96;100026.66;5028937;28;20026;-80
2022/06/05 08:11:12;;;;;;;3.00;2.10;;;;;;;49.26;11.27;100032.34;5033111;28;20065;-80
2022/06/05 08:13:38;;;;;;;2.13;1.92;;;;;;;47.78;11.62;100026.91;5024488;28;20030;-80
2022/06/05 08:16:04;;;;;;;2.03;1.90;;;;;;;43.56;14.25;100014.31;5021469;28;20033;-80
2022/06/05 08:18:29;;;;;;;4.10;2.33;;;;;;;39.51;17.65;100014.50;5016892;28;20034;-80
2022/06/05 08:20:55;;;;;;;1.98;1.88;;;;;;;36.53;20.64;100008.09;5016916;28;20025;-80
2022/06/05 08:23:20;;;;;;;2.97;2.25;;;;;;;34.35;22.99;99997.72;5016620;28;20028;-79
2022/06/05 08:25:46;;;;;;;2.58;2.38;;;;;;;32.96;25.00;99991.72;5016694;28;20133;-79
2022/06/05 08:28:11;;;;;;;3.38;2.50;;;;;;;31.90;26.42;99994.22;5051737;28;20033;-79
2022/06/05 08:30:38;;;;;;;3.55;2.58;;;;;;;30.86;28.52;99994.19;5054698;28;20384;-79
2022/06/05 08:33:04;;;;;;;2.85;2.65;;;;;;;30.26;28.99;99995.47;5036509;28;20111;-79
2022/06/05 08:35:29;;;;;;;2.70;2.50;;;;;;;29.85;31.20;100004.06;5036187;28;20040;-79
2022/06/05 08:41:27;;;;;;;3.00;2.70;;;;;;;28.52;33.43;99991.25;4992580;28;20038;-79
2022/06/05 08:44:04;;;;;;;3.00;2.70;;;;;;;28.23;34.54;99989.28;4992717;28;20041;-79
2022/06/05 08:46:36;;;;;;;3.10;2.65;;;;;;;28.02;35.34;99992.59;4975929;28;20060;-79
2022/06/05 08:49:08;;;;;;;3.33;2.67;;;;;;;27.89;36.09;99997.66;4976054;28;20049;-79
2022/06/05 08:52:11;;;;;;;4.68;3.30;;;;;;;27.78;35.69;99998.91;4976060;28;20042;-79
2022/06/05 08:54:49;;;;;;;5.30;2.90;;;;;;;27.59;35.03;99997.41;4992210;28;20058;-79
2022/06/05 08:57:20;;;;;;;3.72;2.92;;;;;;;27.43;36.16;99996.63;4975799;28;20038;-79
2022/06/05 08:59:45;;;;;;;;;;;;;;;27.33;36.89;99996.84;4992644;28;20038;-79
2022/06/05 09:02:23;;;;;;;2.90;2.60;;;;;;;27.21;37.48;100000.88;4975582;28;19914;-79
2022/06/05 09:04:52;;;;;;;4.30;2.97;;;;;;;27.23;37.87;99999.72;4992066;28;20034;-79
2022/06/05 09:07:27;;;;;;;3.55;3.22;;;;;;;27.08;35.40;100001.38;4975453;28;20034;-79
2022/06/05 09:10:00;;;;;;;4.22;3.03;;;;;;;26.94;35.44;99992.22;4975837;28;20081;-79
2022/06/05 09:12:25;;;;;;;3.42;3.08;;;;;;;26.94;35.67;99992.22;4975511;28;20072;-79
2022/06/05 09:15:19;;;;;;;3.63;3.33;;;;;;;26.97;36.08;99991.88;4991952;28;20035;-79
2022/06/05 09:17:53;;;;;;;5.68;3.42;;;;;;;26.91;36.31;99989.03;4937318;28;20035;-79
2022/06/05 09:20:18;;;;;;;4.00;3.25;;;;;;;26.94;37.56;99996.72;4955907;28;20039;-79
2022/06/05 09:22:57;;;;;;;4.25;3.20;;;;;;;26.76;37.68;99984.38;4956118;28;20141;-79
2022/06/05 09:25:33;;;;;;;4.97;3.10;;;;;;;26.65;37.94;99984.72;4956036;28;20530;-79
2022/06/05 09:28:25;;;;;;;4.88;3.28;;;;;;;26.49;37.86;99982.88;4956053;28;20042;-79
2022/06/05 09:31:02;;;;;;;6.28;3.47;;;;;;;26.45;38.62;99983.34;4956099;28;20041;-79
2022/06/05 09:33:34;;;;;;;4.32;3.00;;;;;;;26.40;37.98;99975.81;4955766;28;20086;-79
2022/06/05 09:36:08;;;;;;;3.10;2.80;;;;;;;26.46;38.34;99988.53;4955929;28;20042;-79
2022/06/05 09:38:40;;;;;;;4.88;3.85;;;;;;;26.33;38.56;99969.47;4955632;28;20038;-79
2022/06/05 09:41:11;;;;;;;3.70;3.40;;;;;;;26.38;39.09;99988.50;4955496;28;20494;-79
2022/06/05 09:43:50;;;;;;;4.65;3.80;;;;;;;26.27;39.41;99978.97;4955762;28;20498;-79
2022/06/05 09:46:42;;;;;;;6.28;3.80;;;;;;;26.18;40.12;99979.13;4955518;28;20037;-79
2022/06/05 09:49:22;;;;;;;4.85;4.25;;;;;;;26.08;40.83;99984.59;4955589;28;20061;-79
2022/06/05 09:51:47;;;;;;;3.77;3.47;;;;;;;26.13;40.96;99992.97;4955674;28;20023;-79
2022/06/05 09:54:22;;;;;;;4.25;3.85;;;;;;;26.01;40.55;99995.09;4985464;28;20272;-79
2022/06/05 09:59:50;;;;;;;5.68;3.80;;;;;;;25.98;41.00;99978.56;5053040;28;20115;-79
2022/06/05 10:02:20;;;;;;;4.10;3.70;;;;;;;26.02;40.35;99969.25;5052540;28;20025;-79
2022/06/05 10:04:45;;;;;;;;;;;;;;;26.17;40.73;99970.28;5035333;28;20039;-79
2022/06/05 10:07:27;;;;;;;4.07;3.50;;;;;;;26.05;40.08;99955.59;5034717;28;19999;-79
2022/06/05 10:09:54;;;;;;;3.85;3.45;;;;;;;25.97;40.07;99951.06;5034716;28;20033;-79
2022/06/05 10:12:37;;;;;;;3.83;3.47;;;;;;;25.96;40.56;99959.25;5034652;28;20494;-79
2022/06/05 10:15:28;;;;;;;4.65;3.97;;;;;;;25.84;40.71;99958.69;5052949;28;20029;-78
2022/06/05 10:17:58;;;;;;;7.20;4.47;;;;;;;25.78;40.96;99959.31;5034524;28;20029;-79
2022/06/05 10:20:23;;;;;;;5.25;3.80;;;;;;;25.77;40.87;99953.16;5034096;28;20021;-79
2022/06/05 10:22:54;;;;;;;4.10;3.70;;;;;;;25.81;41.03;99948.34;5034678;28;20040;-79
2022/06/05 10:26:09;;;;;;;3.85;3.55;;;;;;;25.96;41.05;99953.91;5009463;28;20397;-79
2022/06/05 10:28:39;;;;;;;4.60;4.20;;;;;;;25.97;40.62;99944.88;4914261;29;20040;-79
2022/06/05 10:31:23;;;;;;;4.20;3.42;;;;;;;25.98;41.08;99941.22;4904293;29;20043;-79
2022/06/05 10:34:09;;;;;;;5.32;3.97;;;;;;;26.08;40.81;99957.91;4912199;29;20028;-80
2022/06/05 10:36:50;;;;;;;4.47;4.07;;;;;;;26.07;41.10;99950.91;4931866;29;20094;-80
2022/06/05 10:39:25;;;;;;;5.25;4.05;;;;;;;26.18;41.70;99939.91;4931997;29;20138;-80
2022/06/05 10:41:53;;;;;;;4.15;3.70;;;;;;;26.30;40.60;99946.59;4932125;29;20472;-80
2022/06/05 10:44:49;;;;;;;3.58;3.28;;;;;;;26.42;40.41;99935.56;4929707;29;20033;-80
2022/06/05 10:47:31;;;;;;;4.25;3.72;;;;;;;26.41;39.67;99947.28;4931978;29;20042;-80
2022/06/05 10:50:19;;;;;;;5.00;3.90;;;;;;;26.25;40.46;99937.41;4932060;29;20039;-80
2022/06/05 10:52:53;;;;;;;4.10;3.70;;;;;;;26.19;39.44;99930.91;4931580;29;20043;-80
2022/06/05 10:55:18;;;;;;;4.32;3.92;;;;;;;26.24;39.01;99936.56;4934044;28;20047;-80
2022/06/05 10:58:01;;;;;;;4.75;4.07;;;;;;;26.08;38.83;99920.53;4954245;28;20403;-80
2022/06/05 11:00:44;;;;;;;5.03;4.18;;;;;;;26.12;37.91;99919.19;4969865;28;20205;-79
2022/06/05 11:03:40;;;;;;;4.85;4.18;;;;;;;26.19;39.24;99930.91;4970295;28;20026;-79
2022/06/05 11:06:25;;;;;;;4.65;4.25;;;;;;;26.21;39.87;99930.72;5013744;28;20032;-79
2022/06/05 11:09:07;;;;;;;5.65;3.90;;;;;;;26.19;39.37;99930.06;5013566;28;20091;-79
2022/06/05 11:15:18;;;;;;;4.25;3.53;;;;;;;26.39;38.64;99920.75;4931184;29;20087;-79
2022/06/05 11:18:10;;;;;;;3.92;3.63;;;;;;;26.43;39.10;99911.41;4897077;29;20564;-79
2022/06/05 11:20:39;;;;;;;4.32;3.92;;;;;;;26.37;37.15;99906.72;4840602;29;20514;-79
2022/06/05 11:23:11;;;;;;;5.80;4.33;;;;;;;26.23;38.51;99902.88;4841660;29;20049;-79
2022/06/05 11:26:05;;;;;;;4.45;4.05;;;;;;;26.16;39.22;99901.03;4840897;29;20061;-79
2022/06/05 11:29:00;;;;;;;7.43;4.45;;;;;;;26.13;38.50;99899.53;4803363;29;20035;-79
2022/06/05 11:31:42;;;;;;;15.85;4.43;;;;;;;26.02;39.20;99894.50;4819898;29;20046;-79
2022/06/05 11:34:32;;;;;;;6.22;4.57;;;;;;;25.97;39.76;99891.50;4820186;29;20070;-79
2022/06/05 11:37:15;;;;;;;4.88;4.43;;;;;;;25.92;40.21;99886.66;4804910;29;20035;-79
2022/06/05 11:40:10;;;;;;;5.72;4.05;;;;;;;25.98;39.67;99890.50;4820520;29;20373;-79
2022/06/05 11:42:47;;;;;;;5.15;4.53;;;;;;;25.95;39.91;99886.31;4801511;29;20400;-79
2022/06/05 11:45:44;;;;;;;5.82;4.72;;;;;;;25.96;39.82;99879.16;4802748;29;20046;-79
2022/06/05 11:48:31;;;;;;;6.00;4.50;;;;;;;26.06;39.10;99880.66;4803853;29;20443;-79
2022/06/05 11:51:21;;;;;;;4.40;3.97;;;;;;;26.21;38.99;99875.53;4805027;29;20046;-79
2022/06/05 11:54:02;;;;;;;4.97;3.83;;;;;;;26.42;39.06;99867.00;4805075;29;20050;-79
2022/06/05 11:56:39;;;;;;;5.60;3.72;;;;;;;26.60;38.98;99864.16;4805897;29;20043;-80
2022/06/05 11:59:23;;;;;;;6.35;3.55;;;;;;;26.73;39.02;99855.63;4878380;29;20072;-79
2022/06/05 12:01:55;;;;;;;4.25;3.78;;;;;;;26.79;39.31;99852.25;4878711;29;20081;-80
2022/06/05 12:04:43;;;;;;;4.53;3.75;;;;;;;26.99;38.73;99858.88;4896938;29;20046;-80
2022/06/05 12:07:13;;;;;;;6.70;5.13;;;;;;;26.87;37.12;99854.91;4918917;29;20071;-79
2022/06/05 12:09:56;;;;;;;6.25;5.45;;;;;;;26.70;37.65;99858.63;4918758;29;20106;-79
2022/06/05 12:12:34;;;;;;;5.20;4.47;;;;;;;26.49;37.69;99848.47;4934404;29;20153;-78
2022/06/05 12:15:19;;;;;;;4.15;3.78;;;;;;;26.32;37.55;99848.47;4918851;29;20035;-79
2022/06/05 12:18:19;;;;;;;4.22;3.83;;;;;;;26.33;37.60;99839.44;4934906;29;20142;-78